sensor_id;sensor_type;location;lat;lon;timestamp;temperature;humidity
65040;HTU21D;51606;45.000;38.612;2022-09-20T00:01:26;12.23;66.04
65040;HTU21D;51606;45.000;38.612;2022-09-20T00:03:56;12.19;66.14
65040;HTU21D;51606;45.000;38.612;2022-09-20T00:06:29;12.13;66.26
65040;HTU21D;51606;45.000;38.612;2022-09-20T00:08:56;12.06;66.22
65040;HTU21D;51606;45.000;38.612;2022-09-20T00:11:26;12.05;66.33
65040;HTU21D;51606;45.000;38.612;2022-09-20T00:13:56;12.06;66.35
65040;HTU21D;51606;45.000;38.612;2022-09-20T00:16:27;12.04;66.40
65040;HTU21D;51606;45.000;38.612;2022-09-20T00:18:57;12.00;66.43
65040;HTU21D;51606;45.000;38.612;2022-09-20T00:21:26;11.93;66.53
65040;HTU21D;51606;45.000;38.612;2022-09-20T00:24:15;11.89;66.59
65040;HTU21D;51606;45.000;38.612;2022-09-20T00:26:42;11.86;66.62
65040;HTU21D;51606;45.000;38.612;2022-09-20T00:29:27;11.85;66.58
65040;HTU21D;51606;45.000;38.612;2022-09-20T00:31:54;11.84;66.58
65040;HTU21D;51606;45.000;38.612;2022-09-20T00:34:21;11.82;66.61
65040;HTU21D;51606;45.000;38.612;2022-09-20T00:37:06;11.81;66.56
65040;HTU21D;51606;45.000;38.612;2022-09-20T00:39:33;11.79;66.59
65040;HTU21D;51606;45.000;38.612;2022-09-20T00:42:00;11.78;66.59
65040;HTU21D;51606;45.000;38.612;2022-09-20T00:44:57;11.78;66.76
65040;HTU21D;51606;45.000;38.612;2022-09-20T00:47:47;11.75;66.75
65040;HTU21D;51606;45.000;38.612;2022-09-20T00:56:14;11.76;66.65
65040;HTU21D;51606;45.000;38.612;2022-09-20T00:59:00;11.73;66.60
65040;HTU21D;51606;45.000;38.612;2022-09-20T01:01:34;11.75;66.51
65040;HTU21D;51606;45.000;38.612;2022-09-20T01:04:05;11.77;66.49
65040;HTU21D;51606;45.000;38.612;2022-09-20T01:06:35;11.76;66.59
65040;HTU21D;51606;45.000;38.612;2022-09-20T01:09:04;11.75;66.71
65040;HTU21D;51606;45.000;38.612;2022-09-20T01:11:35;11.74;66.79
65040;HTU21D;51606;45.000;38.612;2022-09-20T01:14:05;11.71;66.81
65040;HTU21D;51606;45.000;38.612;2022-09-20T01:16:35;11.73;66.88
65040;HTU21D;51606;45.000;38.612;2022-09-20T01:28:37;11.89;66.53
65040;HTU21D;51606;45.000;38.612;2022-09-20T01:31:21;11.89;66.73
65040;HTU21D;51606;45.000;38.612;2022-09-20T01:34:23;11.85;66.78
65040;HTU21D;51606;45.000;38.612;2022-09-20T01:36:53;11.77;66.90
65040;HTU21D;51606;45.000;38.612;2022-09-20T01:42:32;11.64;67.35
65040;HTU21D;51606;45.000;38.612;2022-09-20T01:56:25;11.42;67.64
65040;HTU21D;51606;45.000;38.612;2022-09-20T01:59:36;11.39;67.75
65040;HTU21D;51606;45.000;38.612;2022-09-20T02:08:16;11.30;67.85
65040;HTU21D;51606;45.000;38.612;2022-09-20T02:16:29;11.20;68.06
65040;HTU21D;51606;45.000;38.612;2022-09-20T02:34:30;11.18;68.10
65040;HTU21D;51606;45.000;38.612;2022-09-20T02:42:54;11.29;68.14
65040;HTU21D;51606;45.000;38.612;2022-09-20T02:45:47;11.29;68.20
65040;HTU21D;51606;45.000;38.612;2022-09-20T02:48:35;11.28;68.16
65040;HTU21D;51606;45.000;38.612;2022-09-20T02:51:42;11.27;68.23
65040;HTU21D;51606;45.000;38.612;2022-09-20T03:04:47;11.11;68.31
65040;HTU21D;51606;45.000;38.612;2022-09-20T03:07:31;11.05;68.40
65040;HTU21D;51606;45.000;38.612;2022-09-20T03:10:24;11.05;68.42
65040;HTU21D;51606;45.000;38.612;2022-09-20T03:13:28;11.07;68.42
65040;HTU21D;51606;45.000;38.612;2022-09-20T03:18:54;11.07;68.41
65040;HTU21D;51606;45.000;38.612;2022-09-20T03:22:01;11.07;68.01
65040;HTU21D;51606;45.000;38.612;2022-09-20T03:39:18;11.20;68.20
65040;HTU21D;51606;45.000;38.612;2022-09-20T03:42:18;11.24;68.17
65040;HTU21D;51606;45.000;38.612;2022-09-20T03:45:24;11.30;68.11
65040;HTU21D;51606;45.000;38.612;2022-09-20T03:53:52;11.40;68.09
65040;HTU21D;51606;45.000;38.612;2022-09-20T03:56:54;11.48;68.09
65040;HTU21D;51606;45.000;38.612;2022-09-20T04:03:12;11.75;67.81
65040;HTU21D;51606;45.000;38.612;2022-09-20T04:16:34;12.99;66.20
65040;HTU21D;51606;45.000;38.612;2022-09-20T04:19:44;13.12;66.24
65040;HTU21D;51606;45.000;38.612;2022-09-20T04:22:15;13.40;65.98
65040;HTU21D;51606;45.000;38.612;2022-09-20T04:25:04;13.74;65.79
65040;HTU21D;51606;45.000;38.612;2022-09-20T04:27:50;14.27;65.32
65040;HTU21D;51606;45.000;38.612;2022-09-20T04:30:25;14.97;64.83
65040;HTU21D;51606;45.000;38.612;2022-09-20T04:32:59;16.03;63.82
65040;HTU21D;51606;45.000;38.612;2022-09-20T04:35:42;16.88;62.72
65040;HTU21D;51606;45.000;38.612;2022-09-20T04:38:35;17.38;62.44
65040;HTU21D;51606;45.000;38.612;2022-09-20T04:46:58;20.32;60.51
65040;HTU21D;51606;45.000;38.612;2022-09-20T04:55:49;24.43;56.67
65040;HTU21D;51606;45.000;38.612;2022-09-20T05:29:01;24.51;56.29
65040;HTU21D;51606;45.000;38.612;2022-09-20T05:34:47;26.57;51.91
65040;HTU21D;51606;45.000;38.612;2022-09-20T05:41:12;28.14;49.60
65040;HTU21D;51606;45.000;38.612;2022-09-20T05:43:27;28.82;48.43
65040;HTU21D;51606;45.000;38.612;2022-09-20T05:57:38;29.54;47.45
65040;HTU21D;51606;45.000;38.612;2022-09-20T06:00:19;29.65;47.25
65040;HTU21D;51606;45.000;38.612;2022-09-20T06:05:45;29.42;47.88
65040;HTU21D;51606;45.000;38.612;2022-09-20T06:13:43;28.76;48.96
65040;HTU21D;51606;45.000;38.612;2022-09-20T06:16:39;28.58;49.70
65040;HTU21D;51606;45.000;38.612;2022-09-20T06:24:45;28.77;49.81
65040;HTU21D;51606;45.000;38.612;2022-09-20T06:27:26;28.67;49.79
65040;HTU21D;51606;45.000;38.612;2022-09-20T06:29:59;28.47;50.12
65040;HTU21D;51606;45.000;38.612;2022-09-20T06:32:29;28.40;50.37
65040;HTU21D;51606;45.000;38.612;2022-09-20T06:34:57;28.39;50.36
65040;HTU21D;51606;45.000;38.612;2022-09-20T06:40:43;28.68;49.66
65040;HTU21D;51606;45.000;38.612;2022-09-20T06:43:30;28.78;49.95
65040;HTU21D;51606;45.000;38.612;2022-09-20T06:45:57;28.92;49.59
65040;HTU21D;51606;45.000;38.612;2022-09-20T06:48:23;28.99;49.23
65040;HTU21D;51606;45.000;38.612;2022-09-20T06:50:50;28.60;48.71
65040;HTU21D;51606;45.000;38.612;2022-09-20T06:53:27;28.03;48.71
65040;HTU21D;51606;45.000;38.612;2022-09-20T06:55:54;28.05;48.83
65040;HTU21D;51606;45.000;38.612;2022-09-20T06:58:21;28.56;48.07
65040;HTU21D;51606;45.000;38.612;2022-09-20T07:00:48;29.08;47.31
65040;HTU21D;51606;45.000;38.612;2022-09-20T07:03:14;29.43;46.70
65040;HTU21D;51606;45.000;38.612;2022-09-20T07:05:40;29.60;45.97
65040;HTU21D;51606;45.000;38.612;2022-09-20T07:08:07;29.71;45.69
65040;HTU21D;51606;45.000;38.612;2022-09-20T07:10:33;29.89;45.57
65040;HTU21D;51606;45.000;38.612;2022-09-20T07:13:01;30.31;44.27
65040;HTU21D;51606;45.000;38.612;2022-09-20T07:15:46;30.38;44.04
65040;HTU21D;51606;45.000;38.612;2022-09-20T07:18:12;30.69;42.94
65040;HTU21D;51606;45.000;38.612;2022-09-20T07:20:39;31.21;42.37
65040;HTU21D;51606;45.000;38.612;2022-09-20T07:23:06;31.69;41.62
65040;HTU21D;51606;45.000;38.612;2022-09-20T07:25:34;31.99;41.23
65040;HTU21D;51606;45.000;38.612;2022-09-20T07:28:01;32.33;40.86
65040;HTU21D;51606;45.000;38.612;2022-09-20T07:30:28;32.69;40.50
65040;HTU21D;51606;45.000;38.612;2022-09-20T07:32:54;33.03;40.06
65040;HTU21D;51606;45.000;38.612;2022-09-20T07:35:20;33.36;39.69
65040;HTU21D;51606;45.000;38.612;2022-09-20T07:37:47;33.31;39.55
65040;HTU21D;51606;45.000;38.612;2022-09-20T07:40:13;32.73;40.13
65040;HTU21D;51606;45.000;38.612;2022-09-20T07:42:40;32.46;40.16
65040;HTU21D;51606;45.000;38.612;2022-09-20T07:45:07;32.45;39.78
65040;HTU21D;51606;45.000;38.612;2022-09-20T07:47:34;32.72;39.60
65040;HTU21D;51606;45.000;38.612;2022-09-20T07:50:01;32.87;38.98
65040;HTU21D;51606;45.000;38.612;2022-09-20T07:52:27;32.98;38.94
65040;HTU21D;51606;45.000;38.612;2022-09-20T07:54:54;32.96;38.21
65040;HTU21D;51606;45.000;38.612;2022-09-20T07:57:21;33.05;38.40
65040;HTU21D;51606;45.000;38.612;2022-09-20T07:59:50;33.30;38.23
65040;HTU21D;51606;45.000;38.612;2022-09-20T08:02:17;33.38;38.09
65040;HTU21D;51606;45.000;38.612;2022-09-20T08:04:43;33.52;38.08
65040;HTU21D;51606;45.000;38.612;2022-09-20T08:07:20;33.75;37.89
65040;HTU21D;51606;45.000;38.612;2022-09-20T08:09:51;33.83;37.69
65040;HTU21D;51606;45.000;38.612;2022-09-20T08:12:21;33.81;37.76
65040;HTU21D;51606;45.000;38.612;2022-09-20T08:14:52;33.73;37.97
65040;HTU21D;51606;45.000;38.612;2022-09-20T08:17:23;33.66;37.97
65040;HTU21D;51606;45.000;38.612;2022-09-20T08:19:56;33.51;37.85
65040;HTU21D;51606;45.000;38.612;2022-09-20T08:22:27;33.59;37.80
65040;HTU21D;51606;45.000;38.612;2022-09-20T08:24:54;33.73;37.75
65040;HTU21D;51606;45.000;38.612;2022-09-20T08:27:29;33.74;37.56
65040;HTU21D;51606;45.000;38.612;2022-09-20T08:29:56;33.09;38.28
65040;HTU21D;51606;45.000;38.612;2022-09-20T08:32:23;32.40;38.85
65040;HTU21D;51606;45.000;38.612;2022-09-20T08:34:49;31.92;39.49
65040;HTU21D;51606;45.000;38.612;2022-09-20T08:37:16;32.27;38.87
65040;HTU21D;51606;45.000;38.612;2022-09-20T08:39:43;31.80;39.02
65040;HTU21D;51606;45.000;38.612;2022-09-20T08:42:28;30.93;39.52
65040;HTU21D;51606;45.000;38.612;2022-09-20T08:44:59;30.54;39.83
65040;HTU21D;51606;45.000;38.612;2022-09-20T08:47:29;29.80;40.17
65040;HTU21D;51606;45.000;38.612;2022-09-20T08:49:57;29.80;40.41
65040;HTU21D;51606;45.000;38.612;2022-09-20T08:52:29;30.55;39.70
65040;HTU21D;51606;45.000;38.612;2022-09-20T08:54:57;31.23;39.13
65040;HTU21D;51606;45.000;38.612;2022-09-20T08:57:27;31.54;38.87
65040;HTU21D;51606;45.000;38.612;2022-09-20T08:59:58;31.72;38.72
65040;HTU21D;51606;45.000;38.612;2022-09-20T09:02:24;31.44;39.07
65040;HTU21D;51606;45.000;38.612;2022-09-20T09:04:51;31.29;39.01
65040;HTU21D;51606;45.000;38.612;2022-09-20T09:07:19;31.16;39.13
65040;HTU21D;51606;45.000;38.612;2022-09-20T09:09:49;31.28;39.21
65040;HTU21D;51606;45.000;38.612;2022-09-20T09:12:21;31.59;39.02
65040;HTU21D;51606;45.000;38.612;2022-09-20T09:14:50;31.66;39.02
65040;HTU21D;51606;45.000;38.612;2022-09-20T09:17:25;31.81;38.94
65040;HTU21D;51606;45.000;38.612;2022-09-20T09:20:18;31.93;38.97
65040;HTU21D;51606;45.000;38.612;2022-09-20T09:22:58;32.02;39.01
65040;HTU21D;51606;45.000;38.612;2022-09-20T09:25:28;31.94;39.09
65040;HTU21D;51606;45.000;38.612;2022-09-20T09:28:02;31.87;39.20
65040;HTU21D;51606;45.000;38.612;2022-09-20T09:30:35;31.65;39.14
65040;HTU21D;51606;45.000;38.612;2022-09-20T09:36:14;31.63;39.08
65040;HTU21D;51606;45.000;38.612;2022-09-20T09:38:44;31.28;38.88
65040;HTU21D;51606;45.000;38.612;2022-09-20T09:41:30;30.98;38.80
65040;HTU21D;51606;45.000;38.612;2022-09-20T09:44:19;30.63;38.88
65040;HTU21D;51606;45.000;38.612;2022-09-20T09:46:46;30.21;39.28
65040;HTU21D;51606;45.000;38.612;2022-09-20T09:49:18;29.91;39.45
65040;HTU21D;51606;45.000;38.612;2022-09-20T09:52:02;29.27;39.88
65040;HTU21D;51606;45.000;38.612;2022-09-20T09:54:37;28.65;40.55
65040;HTU21D;51606;45.000;38.612;2022-09-20T09:59:46;27.59;41.57
65040;HTU21D;51606;45.000;38.612;2022-09-20T10:05:11;27.19;41.90
65040;HTU21D;51606;45.000;38.612;2022-09-20T10:13:31;26.83;42.23
65040;HTU21D;51606;45.000;38.612;2022-09-20T10:18:33;26.47;42.65
65040;HTU21D;51606;45.000;38.612;2022-09-20T10:37:41;27.15;42.55
65040;HTU21D;51606;45.000;38.612;2022-09-20T10:48:30;27.95;42.17
65040;HTU21D;51606;45.000;38.612;2022-09-20T10:51:05;27.97;42.32
65040;HTU21D;51606;45.000;38.612;2022-09-20T10:54:00;28.09;42.31
65040;HTU21D;51606;45.000;38.612;2022-09-20T10:56:37;28.11;42.38
65040;HTU21D;51606;45.000;38.612;2022-09-20T11:00:00;28.01;42.59
65040;HTU21D;51606;45.000;38.612;2022-09-20T11:02:40;27.87;42.82
65040;HTU21D;51606;45.000;38.612;2022-09-20T11:05:15;27.70;42.92
65040;HTU21D;51606;45.000;38.612;2022-09-20T11:08:15;27.44;43.33
65040;HTU21D;51606;45.000;38.612;2022-09-20T11:10:47;27.36;43.51
65040;HTU21D;51606;45.000;38.612;2022-09-20T11:13:26;27.40;43.53
65040;HTU21D;51606;45.000;38.612;2022-09-20T11:16:20;27.41;43.52
65040;HTU21D;51606;45.000;38.612;2022-09-20T11:19:10;27.52;43.48
65040;HTU21D;51606;45.000;38.612;2022-09-20T11:21:46;27.68;43.31
65040;HTU21D;51606;45.000;38.612;2022-09-20T11:29:57;28.05;43.06
65040;HTU21D;51606;45.000;38.612;2022-09-20T11:35:49;28.10;43.11
65040;HTU21D;51606;45.000;38.612;2022-09-20T11:38:20;27.71;43.61
65040;HTU21D;51606;45.000;38.612;2022-09-20T11:41:40;27.42;44.18
65040;HTU21D;51606;45.000;38.612;2022-09-20T11:43:42;27.22;44.48
65040;HTU21D;51606;45.000;38.612;2022-09-20T11:46:18;27.09;44.70
65040;HTU21D;51606;45.000;38.612;2022-09-20T11:52:04;27.12;44.87
65040;HTU21D;51606;45.000;38.612;2022-09-20T11:57:20;27.23;44.93
65040;HTU21D;51606;45.000;38.612;2022-09-20T12:00:06;27.35;44.87
65040;HTU21D;51606;45.000;38.612;2022-09-20T12:02:48;27.47;44.67
65040;HTU21D;51606;45.000;38.612;2022-09-20T12:05:40;27.57;44.69
65040;HTU21D;51606;45.000;38.612;2022-09-20T12:08:23;27.70;44.61
65040;HTU21D;51606;45.000;38.612;2022-09-20T12:11:06;27.84;44.47
65040;HTU21D;51606;45.000;38.612;2022-09-20T12:13:36;27.93;44.48
65040;HTU21D;51606;45.000;38.612;2022-09-20T12:16:07;27.96;44.50
65040;HTU21D;51606;45.000;38.612;2022-09-20T12:18:48;27.90;44.60
65040;HTU21D;51606;45.000;38.612;2022-09-20T12:21:26;27.78;44.86
65040;HTU21D;51606;45.000;38.612;2022-09-20T12:28:56;28.10;44.71
65040;HTU21D;51606;45.000;38.612;2022-09-20T12:37:23;28.47;44.44
65040;HTU21D;51606;45.000;38.612;2022-09-20T12:39:33;28.54;44.45
65040;HTU21D;51606;45.000;38.612;2022-09-20T12:45:00;28.63;44.51
65040;HTU21D;51606;45.000;38.612;2022-09-20T12:47:31;28.60;44.55
65040;HTU21D;51606;45.000;38.612;2022-09-20T12:50:03;28.56;44.55
65040;HTU21D;51606;45.000;38.612;2022-09-20T12:52:52;28.50;44.64
65040;HTU21D;51606;45.000;38.612;2022-09-20T12:55:30;28.37;44.92
65040;HTU21D;51606;45.000;38.612;2022-09-20T12:58:17;28.23;45.23
65040;HTU21D;51606;45.000;38.612;2022-09-20T13:12:02;27.88;46.10
65040;HTU21D;51606;45.000;38.612;2022-09-20T13:14:25;27.82;46.19
65040;HTU21D;51606;45.000;38.612;2022-09-20T13:19:22;27.69;46.46
65040;HTU21D;51606;45.000;38.612;2022-09-20T13:24:40;27.64;46.38
65040;HTU21D;51606;45.000;38.612;2022-09-20T13:27:14;27.57;46.48
65040;HTU21D;51606;45.000;38.612;2022-09-20T13:29:43;27.51;46.66
65040;HTU21D;51606;45.000;38.612;2022-09-20T13:32:30;27.44;46.67
65040;HTU21D;51606;45.000;38.612;2022-09-20T13:35:07;27.31;46.89
65040;HTU21D;51606;45.000;38.612;2022-09-20T13:40:39;27.05;47.43
65040;HTU21D;51606;45.000;38.612;2022-09-20T13:43:18;26.86;47.66
65040;HTU21D;51606;45.000;38.612;2022-09-20T13:45:52;26.71;47.95
65040;HTU21D;51606;45.000;38.612;2022-09-20T13:48:25;26.60;48.21
65040;HTU21D;51606;45.000;38.612;2022-09-20T13:50:53;26.49;48.39
65040;HTU21D;51606;45.000;38.612;2022-09-20T13:53:23;26.39;48.63
65040;HTU21D;51606;45.000;38.612;2022-09-20T13:55:50;26.26;48.74
65040;HTU21D;51606;45.000;38.612;2022-09-20T13:58:28;26.17;48.99
65040;HTU21D;51606;45.000;38.612;2022-09-20T14:00:59;26.01;49.13
65040;HTU21D;51606;45.000;38.612;2022-09-20T14:03:27;25.89;49.31
65040;HTU21D;51606;45.000;38.612;2022-09-20T14:06:06;25.75;49.64
65040;HTU21D;51606;45.000;38.612;2022-09-20T14:13:51;25.35;50.18
65040;HTU21D;51606;45.000;38.612;2022-09-20T14:16:20;25.23;50.39
65040;HTU21D;51606;45.000;38.612;2022-09-20T14:18:48;25.14;50.52
65040;HTU21D;51606;45.000;38.612;2022-09-20T14:21:24;25.05;50.74
65040;HTU21D;51606;45.000;38.612;2022-09-20T14:23:54;24.95;50.86
65040;HTU21D;51606;45.000;38.612;2022-09-20T14:26:37;24.87;51.08
65040;HTU21D;51606;45.000;38.612;2022-09-20T14:29:27;24.74;51.33
65040;HTU21D;51606;45.000;38.612;2022-09-20T14:31:57;24.60;51.51
65040;HTU21D;51606;45.000;38.612;2022-09-20T14:34:24;24.50;51.69
65040;HTU21D;51606;45.000;38.612;2022-09-20T14:37:06;24.42;52.01
65040;HTU21D;51606;45.000;38.612;2022-09-20T14:39:47;24.30;52.14
65040;HTU21D;51606;45.000;38.612;2022-09-20T14:44:52;24.09;52.30
65040;HTU21D;51606;45.000;38.612;2022-09-20T14:47:34;24.00;52.58
65040;HTU21D;51606;45.000;38.612;2022-09-20T14:50:03;23.88;52.63
65040;HTU21D;51606;45.000;38.612;2022-09-20T14:52:35;23.79;52.80
65040;HTU21D;51606;45.000;38.612;2022-09-20T14:57:39;23.53;53.12
65040;HTU21D;51606;45.000;38.612;2022-09-20T15:00:14;23.43;53.42
65040;HTU21D;51606;45.000;38.612;2022-09-20T15:02:42;23.29;53.55
65040;HTU21D;51606;45.000;38.612;2022-09-20T15:07:43;23.03;53.83
65040;HTU21D;51606;45.000;38.612;2022-09-20T15:10:13;22.90;54.13
65040;HTU21D;51606;45.000;38.612;2022-09-20T15:12:40;22.73;54.26
65040;HTU21D;51606;45.000;38.612;2022-09-20T15:15:16;22.63;54.56
65040;HTU21D;51606;45.000;38.612;2022-09-20T15:17:46;22.48;54.61
65040;HTU21D;51606;45.000;38.612;2022-09-20T15:20:18;22.36;54.86
65040;HTU21D;51606;45.000;38.612;2022-09-20T15:22:48;22.31;54.44
65040;HTU21D;51606;45.000;38.612;2022-09-20T15:25:16;22.20;54.56
65040;HTU21D;51606;45.000;38.612;2022-09-20T15:27:44;22.12;54.59
65040;HTU21D;51606;45.000;38.612;2022-09-20T15:30:17;22.06;54.58
65040;HTU21D;51606;45.000;38.612;2022-09-20T15:32:47;21.99;54.55
65040;HTU21D;51606;45.000;38.612;2022-09-20T15:35:14;21.89;54.56
65040;HTU21D;51606;45.000;38.612;2022-09-20T15:37:40;21.78;54.60
65040;HTU21D;51606;45.000;38.612;2022-09-20T15:40:08;21.68;54.64
65040;HTU21D;51606;45.000;38.612;2022-09-20T15:42:34;21.58;54.68
65040;HTU21D;51606;45.000;38.612;2022-09-20T15:45:10;21.50;54.78
65040;HTU21D;51606;45.000;38.612;2022-09-20T15:47:37;21.39;54.71
65040;HTU21D;51606;45.000;38.612;2022-09-20T15:50:07;21.29;54.78
65040;HTU21D;51606;45.000;38.612;2022-09-20T15:52:38;21.20;54.81
65040;HTU21D;51606;45.000;38.612;2022-09-20T15:55:06;21.09;54.79
65040;HTU21D;51606;45.000;38.612;2022-09-20T15:57:33;20.99;54.84
65040;HTU21D;51606;45.000;38.612;2022-09-20T16:00:00;20.91;54.84
65040;HTU21D;51606;45.000;38.612;2022-09-20T16:02:34;20.81;54.78
65040;HTU21D;51606;45.000;38.612;2022-09-20T16:05:00;20.76;54.77
65040;HTU21D;51606;45.000;38.612;2022-09-20T16:07:27;20.69;54.77
65040;HTU21D;51606;45.000;38.612;2022-09-20T16:09:55;20.64;54.78
65040;HTU21D;51606;45.000;38.612;2022-09-20T16:12:23;20.59;54.77
65040;HTU21D;51606;45.000;38.612;2022-09-20T16:14:50;20.55;54.70
65040;HTU21D;51606;45.000;38.612;2022-09-20T16:17:16;20.51;54.68
65040;HTU21D;51606;45.000;38.612;2022-09-20T16:19:43;20.47;54.66
65040;HTU21D;51606;45.000;38.612;2022-09-20T16:22:13;20.44;54.65
65040;HTU21D;51606;45.000;38.612;2022-09-20T16:24:40;20.39;54.69
65040;HTU21D;51606;45.000;38.612;2022-09-20T16:27:08;20.35;54.72
65040;HTU21D;51606;45.000;38.612;2022-09-20T16:29:35;20.32;54.75
65040;HTU21D;51606;45.000;38.612;2022-09-20T16:32:02;20.29;54.79
65040;HTU21D;51606;45.000;38.612;2022-09-20T16:34:32;20.25;54.90
65040;HTU21D;51606;45.000;38.612;2022-09-20T16:37:04;20.24;54.98
65040;HTU21D;51606;45.000;38.612;2022-09-20T16:39:32;20.20;54.94
65040;HTU21D;51606;45.000;38.612;2022-09-20T16:42:01;20.18;55.03
65040;HTU21D;51606;45.000;38.612;2022-09-20T16:44:33;20.15;55.08
65040;HTU21D;51606;45.000;38.612;2022-09-20T16:47:00;20.09;55.20
65040;HTU21D;51606;45.000;38.612;2022-09-20T16:49:27;20.03;55.36
65040;HTU21D;51606;45.000;38.612;2022-09-20T16:51:53;19.99;55.44
65040;HTU21D;51606;45.000;38.612;2022-09-20T16:54:20;19.94;55.54
65040;HTU21D;51606;45.000;38.612;2022-09-20T16:56:48;19.88;55.69
65040;HTU21D;51606;45.000;38.612;2022-09-20T16:59:18;19.81;55.86
65040;HTU21D;51606;45.000;38.612;2022-09-20T17:01:47;19.74;56.02
